createdAt,value
2022-08-05T00:01:55.334Z,17.81
2022-08-05T00:04:37.364Z,17.85
2022-08-05T00:07:26.920Z,17.85
2022-08-05T00:09:57.588Z,17.84
2022-08-05T00:12:27.312Z,17.81
2022-08-05T00:14:56.232Z,17.74
2022-08-05T00:17:25.774Z,17.66
2022-08-05T00:20:01.806Z,17.58
2022-08-05T00:22:30.935Z,17.53
2022-08-05T00:25:00.039Z,17.47
2022-08-05T00:27:36.214Z,17.43
2022-08-05T00:30:11.330Z,17.40
2022-08-05T00:32:40.624Z,17.39
2022-08-05T00:35:09.998Z,17.40
2022-08-05T00:37:52.645Z,17.40
2022-08-05T00:40:29.194Z,17.42
2022-08-05T00:43:02.853Z,17.43
2022-08-05T00:45:43.751Z,17.47
2022-08-05T00:48:31.521Z,17.47
2022-08-05T00:51:00.645Z,17.47
2022-08-05T00:54:01.375Z,17.45
2022-08-05T00:56:27.002Z,17.42
2022-08-05T00:58:56.100Z,17.36
2022-08-05T01:01:42.623Z,17.30
2022-08-05T01:04:15.994Z,17.23
2022-08-05T01:06:52.370Z,17.17
2022-08-05T01:09:21.005Z,17.16
2022-08-05T01:11:54.892Z,17.15
2022-08-05T01:14:56.506Z,17.16
2022-08-05T01:17:39.853Z,17.17
2022-08-05T01:20:53.830Z,17.17
2022-08-05T01:23:41.489Z,17.14
2022-08-05T01:26:14.397Z,17.11
2022-08-05T01:28:54.030Z,17.09
2022-08-05T01:31:27.267Z,17.02
2022-08-05T01:34:19.773Z,16.98
2022-08-05T01:37:25.648Z,16.94
2022-08-05T01:39:58.906Z,16.94
2022-08-05T01:42:31.833Z,16.93
2022-08-05T01:45:03.723Z,16.92
2022-08-05T01:47:43.256Z,16.92
2022-08-05T01:50:28.620Z,16.93
2022-08-05T01:53:04.749Z,16.96
2022-08-05T01:55:36.345Z,16.97
2022-08-05T01:58:11.159Z,16.98
2022-08-05T02:00:49.860Z,16.96
2022-08-05T02:03:36.959Z,16.95
2022-08-05T02:06:36.997Z,16.90
2022-08-05T02:08:58.890Z,16.89
2022-08-05T02:11:59.495Z,16.87
2022-08-05T02:14:37.866Z,16.82
2022-08-05T02:18:15.214Z,16.80
2022-08-05T02:20:23.748Z,16.80
2022-08-05T02:23:01.867Z,16.83
2022-08-05T02:25:49.215Z,16.87
2022-08-05T02:28:32.109Z,16.91
2022-08-05T02:31:15.982Z,16.95
2022-08-05T02:33:57.653Z,16.99
2022-08-05T02:36:31.518Z,17.03
2022-08-05T02:39:03.261Z,17.08
2022-08-05T02:41:43.040Z,17.15
2022-08-05T02:44:25.797Z,17.18
2022-08-05T02:47:00.076Z,17.17
2022-08-05T02:49:40.606Z,17.13
2022-08-05T02:52:29.531Z,17.09
2022-08-05T02:55:05.117Z,17.03
2022-08-05T02:58:10.885Z,16.94
2022-08-05T03:00:29.539Z,16.86
2022-08-05T03:03:01.078Z,16.75
2022-08-05T03:06:56.224Z,16.78
2022-08-05T03:08:22.642Z,16.76
2022-08-05T03:11:50.067Z,16.77
2022-08-05T03:13:51.488Z,16.80
2022-08-05T03:16:31.858Z,16.82
2022-08-05T03:19:04.266Z,16.85
2022-08-05T03:21:48.801Z,16.89
2022-08-05T03:24:30.171Z,16.90
2022-08-05T03:27:00.271Z,16.91
2022-08-05T03:29:45.782Z,16.93
2022-08-05T03:32:19.673Z,16.99
2022-08-05T03:34:51.121Z,17.03
2022-08-05T03:37:22.615Z,17.05
2022-08-05T03:40:01.933Z,17.09
2022-08-05T03:42:33.164Z,17.16
2022-08-05T03:45:21.499Z,17.21
2022-08-05T03:47:56.809Z,17.28
2022-08-05T03:50:54.055Z,17.36
2022-08-05T03:55:53.702Z,17.46
2022-08-05T03:57:16.411Z,17.57
2022-08-05T03:59:56.071Z,17.67
2022-08-05T04:02:39.123Z,17.76
2022-08-05T04:05:18.394Z,17.88
2022-08-05T04:07:53.167Z,18.01
2022-08-05T04:10:37.549Z,18.12
2022-08-05T04:13:08.138Z,18.26
2022-08-05T04:15:37.160Z,18.38
2022-08-05T04:18:10.225Z,18.48
2022-08-05T04:20:57.062Z,18.50
2022-08-05T04:24:05.452Z,18.66
2022-08-05T04:26:21.933Z,18.79
2022-08-05T04:28:51.961Z,18.89
2022-08-05T04:31:20.654Z,19.01
2022-08-05T04:34:17.594Z,19.13
2022-08-05T04:36:45.577Z,19.27
2022-08-05T04:39:21.723Z,19.40
2022-08-05T04:41:51.419Z,19.53
2022-08-05T04:44:21.546Z,19.66
2022-08-05T04:46:59.767Z,19.78
2022-08-05T04:49:38.644Z,19.91
2022-08-05T04:52:17.298Z,20.03
2022-08-05T04:54:47.528Z,20.13
2022-08-05T04:57:18.082Z,20.23
2022-08-05T04:59:47.939Z,20.33
2022-08-05T05:02:36.167Z,20.43
2022-08-05T05:05:26.542Z,20.51
2022-08-05T05:08:14.303Z,20.59
2022-08-05T05:10:57.357Z,20.70
2022-08-05T05:13:26.181Z,20.82
2022-08-05T05:16:05.971Z,20.93
2022-08-05T05:18:35.941Z,21.02
2022-08-05T05:21:05.563Z,21.09
2022-08-05T05:24:02.155Z,21.15
2022-08-05T05:26:28.759Z,21.25
2022-08-05T05:29:10.074Z,21.34
2022-08-05T05:31:46.354Z,21.42
2022-08-05T05:34:26.709Z,21.49
2022-08-05T05:36:55.911Z,21.56
2022-08-05T05:39:24.471Z,21.61
2022-08-05T05:42:00.267Z,21.65
2022-08-05T05:44:35.981Z,21.73
2022-08-05T05:47:13.260Z,21.87
2022-08-05T05:49:56.606Z,21.99
2022-08-05T05:52:33.049Z,22.06
2022-08-05T05:55:13.431Z,22.12
2022-08-05T05:57:52.137Z,22.22
2022-08-05T06:00:31.303Z,22.36
2022-08-05T06:03:03.483Z,22.46
2022-08-05T06:05:54.107Z,22.56
2022-08-05T06:08:31.699Z,22.65
2022-08-05T06:11:02.297Z,22.69
2022-08-05T06:13:40.516Z,22.87
2022-08-05T06:16:29.922Z,22.96
2022-08-05T06:19:02.210Z,23.06
2022-08-05T06:21:38.743Z,23.12
2022-08-05T06:24:12.773Z,23.11
2022-08-05T06:26:51.213Z,23.13
2022-08-05T06:29:46.266Z,23.18
2022-08-05T06:32:25.565Z,23.24
2022-08-05T06:34:57.929Z,23.35
2022-08-05T06:37:55.873Z,23.47
2022-08-05T06:40:18.442Z,23.63
2022-08-05T06:42:52.769Z,23.79
2022-08-05T06:45:44.719Z,23.90
2022-08-05T06:48:36.112Z,24.04
2022-08-05T06:51:00.187Z,24.20
2022-08-05T06:53:29.299Z,24.35
2022-08-05T06:55:59.707Z,24.46
2022-08-05T06:58:36.592Z,24.51
2022-08-05T07:01:06.901Z,24.58
2022-08-05T07:03:35.774Z,24.65
2022-08-05T07:06:06.187Z,24.73
2022-08-05T07:08:47.920Z,24.83
2022-08-05T07:11:22.293Z,24.85
2022-08-05T07:14:15.492Z,24.78
2022-08-05T07:17:58.597Z,24.66
2022-08-05T07:22:28.271Z,24.65
2022-08-05T07:24:59.477Z,24.64
2022-08-05T07:27:58.072Z,24.67
2022-08-05T07:30:27.815Z,24.70
2022-08-05T07:32:59.669Z,24.61
2022-08-05T07:36:03.320Z,24.61
2022-08-05T07:38:32.483Z,24.75
2022-08-05T07:42:09.395Z,24.87
2022-08-05T07:44:01.010Z,24.90
2022-08-05T07:46:31.966Z,24.91
2022-08-05T08:05:27.918Z,25.42
2022-08-05T08:07:59.745Z,25.73
2022-08-05T08:10:30.490Z,25.76
2022-08-05T08:12:59.033Z,25.77
2022-08-05T08:15:37.441Z,25.81
2022-08-05T08:18:20.906Z,25.91
2022-08-05T08:21:03.379Z,25.93
2022-08-05T08:24:02.356Z,25.97
2022-08-05T08:26:29.343Z,26.04
2022-08-05T08:29:21.756Z,26.15
2022-08-05T08:31:50.561Z,26.20
2022-08-05T08:34:29.874Z,26.23
2022-08-05T08:37:03.314Z,26.35
2022-08-05T08:39:37.797Z,26.46
2022-08-05T08:42:32.489Z,26.61
2022-08-05T08:45:23.839Z,26.69
2022-08-05T08:48:12.581Z,26.76
2022-08-05T08:51:22.298Z,26.76
2022-08-05T08:53:44.315Z,26.82
2022-08-05T08:56:14.329Z,26.80
2022-08-05T08:58:47.638Z,26.88
2022-08-05T09:01:19.622Z,26.91
2022-08-05T09:03:55.629Z,26.97
2022-08-05T09:06:31.318Z,27.06
2022-08-05T09:09:02.217Z,27.11
2022-08-05T09:11:50.830Z,27.15
2022-08-05T09:14:57.765Z,27.20
2022-08-05T09:17:41.265Z,27.08
2022-08-05T09:20:05.934Z,26.92
2022-08-05T09:23:19.405Z,27.08
2022-08-05T09:26:08.518Z,27.28
2022-08-05T09:28:40.814Z,27.32
2022-08-05T09:31:43.646Z,27.16
2022-08-05T09:34:11.792Z,27.10
2022-08-05T09:36:55.988Z,27.24
2022-08-05T09:39:45.650Z,27.46
2022-08-05T09:42:24.376Z,27.71
2022-08-05T09:46:04.904Z,27.67
2022-08-05T09:47:56.321Z,27.51
2022-08-05T09:50:38.546Z,27.61
2022-08-05T09:53:23.062Z,27.78
2022-08-05T09:56:04.787Z,27.77
2022-08-05T09:58:41.991Z,27.74
2022-08-05T10:01:15.766Z,27.87
2022-08-05T10:04:13.888Z,27.99
2022-08-05T10:07:20.247Z,28.20
2022-08-05T10:10:04.283Z,28.27
2022-08-05T10:12:55.734Z,28.04
2022-08-05T10:15:34.430Z,27.83
2022-08-05T10:18:05.966Z,27.86
2022-08-05T10:20:54.004Z,27.97
2022-08-05T10:23:58.966Z,27.96
2022-08-05T10:26:32.531Z,28.10
2022-08-05T10:29:02.735Z,28.27
2022-08-05T10:32:53.606Z,28.44
2022-08-05T10:34:25.743Z,28.62
2022-08-05T10:36:59.753Z,28.63
2022-08-05T10:40:03.175Z,28.62
2022-08-05T10:42:33.789Z,28.51
2022-08-05T10:45:21.196Z,28.64
2022-08-05T10:48:30.361Z,28.80
2022-08-05T10:51:22.490Z,28.92
2022-08-05T10:53:51.451Z,29.23
2022-08-05T10:56:26.162Z,29.37
2022-08-05T10:58:57.510Z,29.15
2022-08-05T11:01:55.644Z,28.80
2022-08-05T11:04:46.613Z,28.50
2022-08-05T11:07:19.325Z,28.54
2022-08-05T11:10:03.718Z,28.64
2022-08-05T11:12:42.494Z,29.10
2022-08-05T11:15:20.125Z,29.60
2022-08-05T11:17:56.878Z,29.64
2022-08-05T11:20:44.439Z,29.45
2022-08-05T11:24:03.181Z,29.24
2022-08-05T11:26:28.101Z,29.24
2022-08-05T11:29:06.834Z,29.66
2022-08-05T11:31:57.453Z,29.68
2022-08-05T11:34:47.546Z,29.81
2022-08-05T11:38:27.852Z,30.21
2022-08-05T11:41:03.674Z,30.59
2022-08-05T11:44:12.732Z,30.93
2022-08-05T11:47:14.060Z,30.80
2022-08-05T11:49:51.255Z,30.56
2022-08-05T11:52:29.399Z,30.25
2022-08-05T11:55:07.624Z,29.99
2022-08-05T11:58:09.151Z,29.74
2022-08-05T12:00:38.496Z,29.38
2022-08-05T12:03:31.487Z,29.14
2022-08-05T12:06:05.644Z,28.97
2022-08-05T12:08:51.027Z,28.95
2022-08-05T12:11:40.612Z,29.09
2022-08-05T12:14:10.553Z,29.65
2022-08-05T12:16:45.242Z,30.23
2022-08-05T12:20:25.422Z,30.78
2022-08-05T12:22:09.514Z,31.27
2022-08-05T12:24:49.660Z,31.69
2022-08-05T12:27:33.365Z,32.03
2022-08-05T12:30:15.455Z,32.37
2022-08-05T12:32:50.859Z,32.69
2022-08-05T12:35:21.614Z,32.77
2022-08-05T12:37:53.252Z,32.34
2022-08-05T12:40:29.875Z,31.85
2022-08-05T12:42:59.615Z,31.52
2022-08-05T12:45:42.377Z,31.51
2022-08-05T12:48:27.679Z,31.34
2022-08-05T12:51:21.607Z,31.62
2022-08-05T12:54:04.190Z,32.07
2022-08-05T12:56:45.180Z,32.39
2022-08-05T12:59:46.743Z,32.54
2022-08-05T13:02:21.369Z,32.22
2022-08-05T13:04:56.525Z,31.88
2022-08-05T13:07:57.323Z,31.99
2022-08-05T13:10:19.698Z,32.30
2022-08-05T13:12:51.155Z,32.36
2022-08-05T13:15:35.898Z,31.99
2022-08-05T13:18:11.265Z,31.53
2022-08-05T13:20:49.966Z,31.30
2022-08-05T13:23:22.609Z,31.64
2022-08-05T13:25:58.953Z,32.01
2022-08-05T13:28:32.166Z,32.35
2022-08-05T13:31:03.380Z,32.56
2022-08-05T13:34:22.896Z,32.97
2022-08-05T13:36:34.157Z,33.30
2022-08-05T13:39:08.490Z,33.51
2022-08-05T13:41:52.868Z,33.88
2022-08-05T13:44:21.737Z,34.28
2022-08-05T13:47:02.298Z,34.28
2022-08-05T13:49:37.036Z,33.73
2022-08-05T13:52:19.838Z,33.30
2022-08-05T13:55:01.042Z,33.15
2022-08-05T13:57:50.758Z,33.07
2022-08-05T14:00:18.308Z,32.78
2022-08-05T14:02:57.382Z,32.22
2022-08-05T14:05:48.343Z,32.27
2022-08-05T14:08:21.137Z,32.70
2022-08-05T14:11:03.344Z,32.69
2022-08-05T14:13:48.231Z,32.87
2022-08-05T14:16:19.318Z,33.05
2022-08-05T14:18:47.716Z,33.31
2022-08-05T14:22:07.456Z,33.56
2022-08-05T14:24:05.111Z,33.52
2022-08-05T14:26:35.462Z,33.15
2022-08-05T14:29:16.100Z,32.51
2022-08-05T14:32:02.702Z,31.87
2022-08-05T14:34:34.995Z,31.24
2022-08-05T14:37:05.319Z,30.96
2022-08-05T14:39:49.692Z,31.14
2022-08-05T14:42:22.742Z,31.53
2022-08-05T14:44:53.908Z,31.56
2022-08-05T14:48:03.237Z,31.39
2022-08-05T14:50:18.117Z,31.64
2022-08-05T14:52:53.556Z,32.06
2022-08-05T14:55:39.183Z,32.54
2022-08-05T14:58:11.646Z,32.94
2022-08-05T15:00:58.315Z,33.21
2022-08-05T15:03:33.179Z,33.36
2022-08-05T15:06:07.454Z,33.28
2022-08-05T15:08:58.216Z,33.31
2022-08-05T15:11:51.507Z,33.33
2022-08-05T15:14:34.562Z,33.28
2022-08-05T15:17:44.573Z,33.07
2022-08-05T15:19:58.251Z,32.72
2022-08-05T15:22:28.469Z,32.50
2022-08-05T15:24:59.276Z,32.44
2022-08-05T15:27:35.944Z,32.42
2022-08-05T15:30:05.450Z,32.29
2022-08-05T15:32:33.934Z,32.12
2022-08-05T15:35:04.184Z,31.97
2022-08-05T15:38:34.762Z,31.70
2022-08-05T15:41:01.029Z,31.19
2022-08-05T15:43:20.454Z,30.85
2022-08-05T15:45:59.821Z,30.47
2022-08-05T15:48:30.211Z,30.19
2022-08-05T15:51:03.357Z,29.99
2022-08-05T15:53:38.066Z,29.79
2022-08-05T15:56:22.197Z,29.74
2022-08-05T15:58:51.423Z,29.65
2022-08-05T16:01:20.351Z,29.65
2022-08-05T16:04:00.294Z,30.15
2022-08-05T16:06:28.724Z,30.47
2022-08-05T16:08:59.175Z,30.52
2022-08-05T16:11:43.020Z,30.48
2022-08-05T16:14:17.367Z,30.43
2022-08-05T16:16:47.323Z,30.33
2022-08-05T16:19:25.580Z,30.23
2022-08-05T16:22:05.600Z,30.05
2022-08-05T16:24:39.865Z,29.91
2022-08-05T16:27:16.029Z,29.72
2022-08-05T16:29:50.378Z,29.57
2022-08-05T16:32:23.485Z,29.42
2022-08-05T16:34:58.761Z,29.28
2022-08-05T16:38:03.707Z,29.17
2022-08-05T16:40:24.817Z,29.04
2022-08-05T16:42:55.292Z,28.88
2022-08-05T16:46:04.095Z,28.76
2022-08-05T16:48:25.167Z,28.65
2022-08-05T16:50:54.948Z,28.54
2022-08-05T16:53:32.262Z,28.45
2022-08-05T16:56:12.132Z,28.34
2022-08-05T16:58:41.208Z,28.27
2022-08-05T17:01:10.807Z,28.17
2022-08-05T17:03:39.279Z,28.09
2022-08-05T17:06:08.343Z,28.02
2022-08-05T17:08:53.329Z,27.95
2022-08-05T17:11:25.721Z,27.87
2022-08-05T17:14:00.270Z,27.78
2022-08-05T17:16:36.811Z,27.71
2022-08-05T17:19:07.805Z,27.64
2022-08-05T17:21:39.792Z,27.56
2022-08-05T17:24:18.711Z,27.49
2022-08-05T17:26:58.872Z,27.41
2022-08-05T17:29:33.180Z,27.33
2022-08-05T17:32:17.404Z,27.25
2022-08-05T17:34:48.199Z,27.18
2022-08-05T17:37:41.437Z,27.11
2022-08-05T17:40:14.986Z,27.03
2022-08-05T17:42:50.859Z,26.96
2022-08-05T17:45:23.160Z,26.89
2022-08-05T17:47:56.139Z,26.82
2022-08-05T17:50:30.406Z,26.74
2022-08-05T17:53:01.968Z,26.65
2022-08-05T17:55:38.148Z,26.58
2022-08-05T17:58:12.805Z,26.49
2022-08-05T18:00:50.512Z,26.41
2022-08-05T18:06:11.899Z,26.28
2022-08-05T18:08:44.518Z,26.20
2022-08-05T18:11:23.717Z,26.13
2022-08-05T18:13:54.820Z,26.06
2022-08-05T18:16:24.044Z,25.99
2022-08-05T18:18:52.758Z,25.91
2022-08-05T18:21:26.068Z,25.84
2022-08-05T18:23:55.225Z,25.72
2022-08-05T18:26:27.813Z,25.63
2022-08-05T18:28:58.922Z,25.51
2022-08-05T18:31:32.999Z,25.38
2022-08-05T18:34:06.120Z,25.27
2022-08-05T18:36:35.628Z,25.14
2022-08-05T18:39:22.371Z,25.01
2022-08-05T18:42:03.724Z,24.83
2022-08-05T18:44:49.287Z,24.69
2022-08-05T18:47:26.592Z,24.61
2022-08-05T18:50:15.477Z,24.53
2022-08-05T18:52:50.887Z,24.48
2022-08-05T18:55:22.356Z,24.43
2022-08-05T18:57:53.187Z,24.40
2022-08-05T19:00:27.177Z,24.37
2022-08-05T19:03:03.649Z,24.35
2022-08-05T19:06:11.562Z,24.33
2022-08-05T19:08:30.453Z,24.29
2022-08-05T19:11:04.437Z,24.26
2022-08-05T19:13:35.566Z,24.21
2022-08-05T19:16:22.154Z,24.17
2022-08-05T19:18:56.423Z,24.08
2022-08-05T19:21:27.577Z,24.02
2022-08-05T19:24:08.141Z,23.90
2022-08-05T19:26:55.031Z,23.88
2022-08-05T19:29:35.446Z,23.81
2022-08-05T19:32:11.505Z,23.71
2022-08-05T19:34:40.727Z,23.70
2022-08-05T19:37:10.763Z,23.67
2022-08-05T19:39:45.527Z,23.66
2022-08-05T19:42:35.522Z,23.65
2022-08-05T19:45:07.224Z,23.65
2022-08-05T19:47:37.149Z,23.66
2022-08-05T19:50:11.945Z,23.68
2022-08-05T19:52:41.270Z,23.70
2022-08-05T19:56:13.796Z,23.71
2022-08-05T19:58:06.747Z,23.65
2022-08-05T20:00:48.596Z,23.66
2022-08-05T20:03:17.374Z,23.71
2022-08-05T20:05:51.384Z,23.72
2022-08-05T20:08:20.862Z,23.76
2022-08-05T20:10:53.983Z,23.74
2022-08-05T20:13:30.042Z,23.70
2022-08-05T20:16:11.684Z,23.66
2022-08-05T20:18:41.440Z,23.62
2022-08-05T20:21:10.734Z,23.58
2022-08-05T20:23:50.941Z,23.55
2022-08-05T20:26:25.375Z,23.52
2022-08-05T20:28:57.048Z,23.46
2022-08-05T20:31:37.044Z,23.44
2022-08-05T20:34:16.921Z,23.45
2022-08-05T20:36:45.628Z,23.42
2022-08-05T20:39:16.296Z,23.40
2022-08-05T20:41:47.879Z,23.38
2022-08-05T20:44:30.661Z,23.38
2022-08-05T20:47:03.535Z,23.37
2022-08-05T20:49:33.293Z,23.35
2022-08-05T20:52:07.964Z,23.32
2022-08-05T20:54:43.080Z,23.29
2022-08-05T20:57:14.357Z,23.26
2022-08-05T21:00:11.140Z,23.16
2022-08-05T21:02:39.349Z,23.20
2022-08-05T21:05:09.219Z,23.19
2022-08-05T21:07:45.679Z,23.19
2022-08-05T21:10:23.622Z,23.19
2022-08-05T21:12:57.681Z,23.15
2022-08-05T21:15:37.920Z,23.11
2022-08-05T21:18:06.605Z,23.09
2022-08-05T21:20:35.737Z,23.07
2022-08-05T21:23:04.176Z,23.03
2022-08-05T21:25:34.397Z,22.96
2022-08-05T21:28:03.445Z,22.90
2022-08-05T21:30:32.280Z,22.83
2022-08-05T21:33:02.002Z,22.79
2022-08-05T21:35:43.696Z,22.78
2022-08-05T21:38:19.843Z,22.78
2022-08-05T21:40:48.533Z,22.72
2022-08-05T21:43:24.608Z,22.65
2022-08-05T21:45:57.605Z,22.57
2022-08-05T21:48:29.280Z,22.45
2022-08-05T21:51:00.495Z,22.43
2022-08-05T21:53:29.340Z,22.35
2022-08-05T21:56:05.809Z,22.28
2022-08-05T21:58:41.993Z,22.15
2022-08-05T22:01:11.458Z,22.08
2022-08-05T22:03:53.811Z,22.03
2022-08-05T22:06:34.879Z,21.96
2022-08-05T22:09:13.805Z,21.89
2022-08-05T22:11:47.129Z,21.81
2022-08-05T22:14:33.685Z,21.78
2022-08-05T22:17:06.946Z,21.75
2022-08-05T22:20:01.267Z,21.74
2022-08-05T22:22:27.363Z,21.72
2022-08-05T22:25:23.950Z,21.70
2022-08-05T22:28:09.109Z,21.67
2022-08-05T22:30:44.243Z,21.63
2022-08-05T22:33:57.227Z,21.59
2022-08-05T22:36:17.106Z,21.57
2022-08-05T22:38:47.964Z,21.54
2022-08-05T22:41:26.339Z,21.54
2022-08-05T22:44:09.669Z,21.51
2022-08-05T22:46:41.631Z,21.50
2022-08-05T22:49:12.443Z,21.50
2022-08-05T22:52:05.558Z,21.49
2022-08-05T22:54:36.782Z,21.51
2022-08-05T22:57:06.733Z,21.54
2022-08-05T22:59:47.392Z,21.56
2022-08-05T23:02:29.615Z,21.54
2022-08-05T23:05:02.029Z,21.52
2022-08-05T23:07:45.179Z,21.51
2022-08-05T23:10:20.109Z,21.51
2022-08-05T23:12:51.472Z,21.50
2022-08-05T23:15:34.876Z,21.48
2022-08-05T23:18:06.057Z,21.46
2022-08-05T23:20:40.328Z,21.42
2022-08-05T23:23:11.776Z,21.39
2022-08-05T23:25:50.871Z,21.37
2022-08-05T23:28:29.070Z,21.34
2022-08-05T23:31:07.066Z,21.33
2022-08-05T23:34:03.931Z,21.31
2022-08-05T23:36:40.149Z,21.31
2022-08-05T23:39:16.515Z,21.28
2022-08-05T23:41:53.963Z,21.22
2022-08-05T23:44:31.129Z,21.16
2022-08-05T23:47:02.623Z,21.14
2022-08-05T23:49:47.251Z,21.13
2022-08-05T23:52:31.955Z,21.12
2022-08-05T23:55:10.089Z,21.10
2022-08-05T23:57:39.726Z,21.08
